createdAt,value
2023-02-19T00:01:36.123Z,79.50
2023-02-19T00:04:38.443Z,79.50
2023-02-19T00:07:41.200Z,79.50
2023-02-19T00:10:43.639Z,79.50
2023-02-19T00:13:48.027Z,79.60
2023-02-19T00:16:50.580Z,79.50
2023-02-19T00:19:52.820Z,79.60
2023-02-19T00:22:54.927Z,79.60
2023-02-19T00:26:03.197Z,79.60
2023-02-19T00:29:18.421Z,79.70
2023-02-19T00:32:20.611Z,79.80
2023-02-19T00:35:23.277Z,79.50
2023-02-19T00:38:26.089Z,79.50
2023-02-19T00:41:29.243Z,79.50
2023-02-19T00:44:31.585Z,79.40
2023-02-19T00:47:33.954Z,79.40
2023-02-19T00:50:36.106Z,79.50
2023-02-19T00:53:38.804Z,79.40
2023-02-19T00:56:41.268Z,79.40
2023-02-19T00:59:43.515Z,79.50
2023-02-19T01:02:45.789Z,79.40
2023-02-19T01:05:50.366Z,79.50
2023-02-19T01:08:52.714Z,79.60
2023-02-19T01:11:54.799Z,79.70
2023-02-19T01:14:57.898Z,79.70
2023-02-19T01:18:00.310Z,80.50
2023-02-19T01:21:07.636Z,80.00
2023-02-19T01:24:10.393Z,80.10
2023-02-19T01:27:12.570Z,80.30
2023-02-19T01:30:14.946Z,80.30
2023-02-19T01:33:17.283Z,80.30
2023-02-19T01:36:19.881Z,80.30
2023-02-19T01:39:22.334Z,80.40
2023-02-19T01:42:24.765Z,80.50
2023-02-19T01:45:38.761Z,80.50
2023-02-19T01:48:41.500Z,80.50
2023-02-19T01:51:48.438Z,80.40
2023-02-19T01:54:51.270Z,80.40
2023-02-19T01:57:56.478Z,81.20
2023-02-19T02:00:59.959Z,80.40
2023-02-19T02:04:02.688Z,80.60
2023-02-19T02:07:26.696Z,80.30
2023-02-19T02:10:34.503Z,80.20
2023-02-19T02:13:38.261Z,80.10
2023-02-19T02:17:24.774Z,80.10
2023-02-19T02:20:51.598Z,80.00
2023-02-19T02:24:06.541Z,79.80
2023-02-19T02:27:51.153Z,79.80
2023-02-19T02:31:04.725Z,79.80
2023-02-19T02:34:18.667Z,79.90
2023-02-19T02:37:21.622Z,79.90
2023-02-19T02:40:24.506Z,80.00
2023-02-19T02:43:27.066Z,80.10
2023-02-19T02:46:35.711Z,80.10
2023-02-19T02:49:59.774Z,80.30
2023-02-19T02:53:27.468Z,80.30
2023-02-19T02:56:32.809Z,80.40
2023-02-19T02:59:40.927Z,80.50
2023-02-19T03:02:44.372Z,80.70
2023-02-19T03:05:52.434Z,80.70
2023-02-19T03:08:57.730Z,80.70
2023-02-19T03:12:22.193Z,80.90
2023-02-19T03:15:52.431Z,80.90
2023-02-19T03:19:18.491Z,81.00
2023-02-19T03:22:26.008Z,80.90
2023-02-19T03:25:51.081Z,81.00
2023-02-19T03:29:15.531Z,81.10
2023-02-19T03:32:32.594Z,81.00
2023-02-19T03:35:57.557Z,81.00
2023-02-19T03:39:06.456Z,81.00
2023-02-19T03:42:39.936Z,81.00
2023-02-19T03:46:03.801Z,81.00
2023-02-19T03:49:24.511Z,81.10
2023-02-19T03:52:41.852Z,80.90
2023-02-19T03:55:53.370Z,80.90
2023-02-19T03:59:09.250Z,81.00
2023-02-19T04:02:16.919Z,80.90
2023-02-19T04:05:21.047Z,81.00
2023-02-19T04:08:25.843Z,80.90
2023-02-19T04:11:29.368Z,81.00
2023-02-19T04:14:50.338Z,81.00
2023-02-19T04:18:00.696Z,81.10
2023-02-19T04:21:04.681Z,81.00
2023-02-19T04:24:15.305Z,80.90
2023-02-19T04:27:20.473Z,81.10
2023-02-19T04:30:22.977Z,81.00
2023-02-19T04:33:25.146Z,81.00
2023-02-19T04:36:32.432Z,81.10
2023-02-19T04:39:36.637Z,81.00
2023-02-19T04:42:38.885Z,81.10
2023-02-19T04:45:41.054Z,81.20
2023-02-19T04:48:43.349Z,81.30
2023-02-19T04:51:45.783Z,81.30
2023-02-19T04:54:48.673Z,81.20
2023-02-19T04:57:51.095Z,81.30
2023-02-19T05:00:53.972Z,81.30
2023-02-19T05:03:57.223Z,81.40
2023-02-19T05:06:59.442Z,81.50
2023-02-19T05:10:01.640Z,81.50
2023-02-19T05:13:03.787Z,81.40
2023-02-19T05:16:19.746Z,81.50
2023-02-19T05:19:22.259Z,81.50
2023-02-19T05:22:24.567Z,81.60
2023-02-19T05:25:26.909Z,81.50
2023-02-19T05:28:29.175Z,81.60
2023-02-19T05:31:33.972Z,81.30
2023-02-19T05:34:36.551Z,81.20
2023-02-19T05:37:38.898Z,81.30
2023-02-19T05:40:41.651Z,81.10
2023-02-19T05:43:46.153Z,81.20
2023-02-19T05:46:48.587Z,80.90
2023-02-19T05:49:51.016Z,80.90
2023-02-19T05:52:53.669Z,80.70
2023-02-19T05:55:55.925Z,80.70
2023-02-19T05:58:58.918Z,80.70
2023-02-19T06:02:01.301Z,80.60
2023-02-19T06:05:05.061Z,80.70
2023-02-19T06:08:07.259Z,80.50
2023-02-19T06:11:10.070Z,80.50
2023-02-19T06:14:14.157Z,80.50
2023-02-19T06:17:16.572Z,80.50
2023-02-19T06:20:18.985Z,80.40
2023-02-19T06:23:21.378Z,80.50
2023-02-19T06:26:25.492Z,80.30
2023-02-19T06:29:27.869Z,80.30
2023-02-19T06:32:30.053Z,80.40
2023-02-19T06:35:32.533Z,80.40
2023-02-19T06:38:34.651Z,80.40
2023-02-19T06:41:37.300Z,81.20
2023-02-19T06:44:39.655Z,80.50
2023-02-19T06:47:42.058Z,80.50
2023-02-19T06:50:44.368Z,80.70
2023-02-19T06:53:46.880Z,80.80
2023-02-19T06:56:49.342Z,80.90
2023-02-19T06:59:51.735Z,81.00
2023-02-19T07:02:56.760Z,81.00
2023-02-19T07:06:00.944Z,81.00
2023-02-19T07:09:05.323Z,81.20
2023-02-19T07:12:07.657Z,81.30
2023-02-19T07:15:10.345Z,81.30
2023-02-19T07:18:12.383Z,81.40
2023-02-19T07:21:16.503Z,81.50
2023-02-19T07:24:21.689Z,81.50
2023-02-19T07:27:23.972Z,81.40
2023-02-19T07:30:26.360Z,81.60
2023-02-19T07:33:28.562Z,81.70
2023-02-19T07:36:30.961Z,81.50
2023-02-19T07:39:34.542Z,81.60
2023-02-19T07:42:36.690Z,81.70
2023-02-19T07:45:39.059Z,81.60
2023-02-19T07:48:43.403Z,81.60
2023-02-19T07:51:45.840Z,81.50
2023-02-19T07:54:48.035Z,81.50
2023-02-19T07:57:50.225Z,81.30
2023-02-19T08:00:52.412Z,80.90
2023-02-19T08:03:54.957Z,80.50
2023-02-19T08:06:57.379Z,80.50
2023-02-19T08:10:18.317Z,79.90
2023-02-19T08:13:25.328Z,79.70
2023-02-19T08:16:42.124Z,79.50
2023-02-19T08:19:45.217Z,79.30
2023-02-19T08:22:47.483Z,79.00
2023-02-19T08:25:51.710Z,78.80
2023-02-19T08:28:53.867Z,78.50
2023-02-19T08:31:56.503Z,78.40
2023-02-19T08:34:58.941Z,77.70
2023-02-19T08:38:07.611Z,77.70
2023-02-19T08:41:13.956Z,77.00
2023-02-19T08:44:16.559Z,77.90
2023-02-19T08:47:18.965Z,77.30
2023-02-19T08:50:22.553Z,76.70
2023-02-19T08:53:25.758Z,76.60
2023-02-19T08:56:27.956Z,76.60
2023-02-19T08:59:30.149Z,76.70
2023-02-19T09:02:33.740Z,76.80
2023-02-19T09:05:36.193Z,77.10
2023-02-19T09:08:38.709Z,77.00
2023-02-19T09:11:43.782Z,77.10
2023-02-19T09:14:46.939Z,77.40
2023-02-19T09:17:53.502Z,77.30
2023-02-19T09:21:01.047Z,77.10
2023-02-19T09:24:03.312Z,77.20
2023-02-19T09:27:05.769Z,77.40
2023-02-19T09:30:08.599Z,77.50
2023-02-19T09:33:10.721Z,76.70
2023-02-19T09:36:14.053Z,77.20
2023-02-19T09:39:16.603Z,77.10
2023-02-19T09:42:25.324Z,77.10
2023-02-19T09:45:27.775Z,76.90
2023-02-19T09:48:31.295Z,77.30
2023-02-19T09:51:36.386Z,77.20
2023-02-19T09:54:39.897Z,77.00
2023-02-19T09:57:43.977Z,76.70
2023-02-19T10:00:49.184Z,76.60
2023-02-19T10:03:51.474Z,76.40
2023-02-19T10:06:59.219Z,76.30
2023-02-19T10:10:12.967Z,76.10
2023-02-19T10:13:27.998Z,76.40
2023-02-19T10:16:30.527Z,76.10
2023-02-19T10:19:34.613Z,76.90
2023-02-19T10:22:38.524Z,77.30
2023-02-19T10:25:46.667Z,77.20
2023-02-19T10:28:49.127Z,77.50
2023-02-19T10:32:18.787Z,77.50
2023-02-19T10:35:21.146Z,77.20
2023-02-19T10:38:35.460Z,77.40
2023-02-19T10:41:44.156Z,77.20
2023-02-19T10:44:51.748Z,76.90
2023-02-19T10:47:54.198Z,76.60
2023-02-19T10:51:05.138Z,76.00
2023-02-19T10:54:19.266Z,76.00
2023-02-19T10:57:29.929Z,76.30
2023-02-19T11:00:32.105Z,76.10
2023-02-19T11:03:34.342Z,75.40
2023-02-19T11:06:37.481Z,75.20
2023-02-19T11:09:42.860Z,74.30
2023-02-19T11:12:49.468Z,74.20
2023-02-19T11:15:54.439Z,73.20
2023-02-19T11:18:57.387Z,73.50
2023-02-19T11:22:01.049Z,74.00
2023-02-19T11:25:10.564Z,74.00
2023-02-19T11:28:28.998Z,74.30
2023-02-19T11:31:32.867Z,74.70
2023-02-19T11:34:35.741Z,74.60
2023-02-19T11:37:57.739Z,73.10
2023-02-19T11:41:27.803Z,73.70
2023-02-19T11:45:08.571Z,74.10
2023-02-19T11:48:34.436Z,74.70
2023-02-19T11:51:57.603Z,74.80
2023-02-19T11:55:18.203Z,74.50
2023-02-19T11:58:38.950Z,74.50
2023-02-19T12:02:16.784Z,75.30
2023-02-19T12:05:27.048Z,75.80
2023-02-19T12:08:37.829Z,76.10
2023-02-19T12:11:59.765Z,76.20
2023-02-19T12:15:25.025Z,76.40
2023-02-19T12:19:19.761Z,76.60
2023-02-19T12:22:35.048Z,76.40
2023-02-19T12:25:57.189Z,76.90
2023-02-19T12:29:05.734Z,77.20
2023-02-19T12:32:09.084Z,77.00
2023-02-19T12:35:54.319Z,76.80
2023-02-19T12:39:35.068Z,76.40
2023-02-19T12:42:51.144Z,76.90
2023-02-19T12:46:15.465Z,77.00
2023-02-19T12:49:36.333Z,76.80
2023-02-19T12:52:43.348Z,76.30
2023-02-19T12:55:47.052Z,76.10
2023-02-19T12:59:07.309Z,77.00
2023-02-19T13:02:24.249Z,77.10
2023-02-19T13:05:51.963Z,77.00
2023-02-19T13:09:06.310Z,77.50
2023-02-19T13:12:14.173Z,78.00
2023-02-19T13:15:27.313Z,77.70
2023-02-19T13:18:57.277Z,77.60
2023-02-19T13:22:34.217Z,78.40
2023-02-19T13:25:45.711Z,78.50
2023-02-19T13:29:18.101Z,78.80
2023-02-19T13:32:38.305Z,79.10
2023-02-19T13:36:13.245Z,79.40
2023-02-19T13:39:18.881Z,80.00
2023-02-19T13:42:28.864Z,79.10
2023-02-19T13:45:44.128Z,78.90
2023-02-19T13:48:46.330Z,80.40
2023-02-19T13:51:52.988Z,79.70
2023-02-19T13:55:33.640Z,79.50
2023-02-19T13:58:54.158Z,79.70
2023-02-19T14:01:56.435Z,79.20
2023-02-19T14:05:10.184Z,79.10
2023-02-19T14:08:12.414Z,79.90
2023-02-19T14:11:16.263Z,79.10
2023-02-19T14:14:35.158Z,79.70
2023-02-19T14:17:42.766Z,79.30
2023-02-19T14:20:46.001Z,80.10
2023-02-19T14:23:54.614Z,80.90
2023-02-19T14:26:57.954Z,80.60
2023-02-19T14:30:00.633Z,79.90
2023-02-19T14:33:10.504Z,80.30
2023-02-19T14:36:44.293Z,80.60
2023-02-19T14:39:47.643Z,80.60
2023-02-19T14:42:53.514Z,80.10
2023-02-19T14:46:03.035Z,80.20
2023-02-19T14:49:28.083Z,80.40
2023-02-19T14:52:33.511Z,81.00
2023-02-19T14:55:42.865Z,80.60
2023-02-19T14:58:45.171Z,80.70
2023-02-19T15:01:56.950Z,81.10
2023-02-19T15:04:59.318Z,81.50
2023-02-19T15:08:06.578Z,80.80
2023-02-19T15:11:17.766Z,80.50
2023-02-19T15:14:23.907Z,80.20
2023-02-19T15:17:28.840Z,80.00
2023-02-19T15:20:34.786Z,80.10
2023-02-19T15:23:37.478Z,79.60
2023-02-19T15:26:42.343Z,79.90
2023-02-19T15:29:51.332Z,80.20
2023-02-19T15:33:01.306Z,80.30
2023-02-19T15:36:07.464Z,80.20
2023-02-19T15:39:19.806Z,80.30
2023-02-19T15:42:26.797Z,80.40
2023-02-19T15:45:42.620Z,80.30
2023-02-19T15:48:57.339Z,80.50
2023-02-19T15:52:06.950Z,80.20
2023-02-19T15:55:16.903Z,80.50
2023-02-19T15:58:34.178Z,79.90
2023-02-19T16:01:38.193Z,80.00
2023-02-19T16:04:45.127Z,80.30
2023-02-19T16:07:47.787Z,80.10
2023-02-19T16:10:58.983Z,80.00
2023-02-19T16:14:24.533Z,79.70
2023-02-19T16:17:28.416Z,80.10
2023-02-19T16:20:36.277Z,80.00
2023-02-19T16:23:43.520Z,80.50
2023-02-19T16:26:46.412Z,80.20
2023-02-19T16:29:51.778Z,80.00
2023-02-19T16:33:22.664Z,80.10
2023-02-19T16:36:38.050Z,80.00
2023-02-19T16:39:40.369Z,80.50
2023-02-19T16:42:51.835Z,80.70
2023-02-19T16:45:54.199Z,81.00
2023-02-19T16:48:56.398Z,81.10
2023-02-19T16:52:03.185Z,81.40
2023-02-19T16:55:13.830Z,81.70
2023-02-19T16:58:16.021Z,81.90
2023-02-19T17:01:18.819Z,82.80
2023-02-19T17:04:21.192Z,82.20
2023-02-19T17:07:23.709Z,82.40
2023-02-19T17:10:27.925Z,82.80
2023-02-19T17:13:30.531Z,83.10
2023-02-19T17:16:40.485Z,83.10
2023-02-19T17:19:42.905Z,83.10
2023-02-19T17:22:46.289Z,83.40
2023-02-19T17:25:48.633Z,83.40
2023-02-19T17:28:51.034Z,84.20
2023-02-19T17:31:53.380Z,83.30
2023-02-19T17:34:55.556Z,83.60
2023-02-19T17:37:58.141Z,83.30
2023-02-19T17:41:00.454Z,83.70
2023-02-19T17:44:02.703Z,83.60
2023-02-19T17:47:06.124Z,83.70
2023-02-19T17:50:13.764Z,83.70
2023-02-19T17:53:16.124Z,83.90
2023-02-19T17:56:20.477Z,83.70
2023-02-19T17:59:23.018Z,83.80
2023-02-19T18:02:25.186Z,83.60
2023-02-19T18:05:27.376Z,83.80
2023-02-19T18:08:29.579Z,83.40
2023-02-19T18:11:32.051Z,83.50
2023-02-19T18:14:34.559Z,83.60
2023-02-19T18:17:36.971Z,83.70
2023-02-19T18:20:39.800Z,83.90
2023-02-19T18:23:42.586Z,84.20
2023-02-19T18:26:45.268Z,84.40
2023-02-19T18:29:55.673Z,84.60
2023-02-19T18:32:58.205Z,84.70
2023-02-19T18:36:00.465Z,84.80
2023-02-19T18:39:02.662Z,84.60
2023-02-19T18:42:05.384Z,84.70
2023-02-19T18:45:08.255Z,84.80
2023-02-19T18:48:10.419Z,84.60
2023-02-19T18:51:14.095Z,84.40
2023-02-19T18:54:17.915Z,84.40
2023-02-19T18:57:22.130Z,84.00
2023-02-19T19:00:26.818Z,84.00
2023-02-19T19:03:30.010Z,84.00
2023-02-19T19:06:32.573Z,83.70
2023-02-19T19:09:35.129Z,83.90
2023-02-19T19:12:37.190Z,83.80
2023-02-19T19:15:41.543Z,83.40
2023-02-19T19:18:43.754Z,83.50
2023-02-19T19:21:53.194Z,83.50
2023-02-19T19:24:55.925Z,83.70
2023-02-19T19:27:58.069Z,83.80
2023-02-19T19:31:00.822Z,84.00
2023-02-19T19:34:10.157Z,84.10
2023-02-19T19:37:13.530Z,84.10
2023-02-19T19:40:17.672Z,84.00
2023-02-19T19:43:19.947Z,84.20
2023-02-19T19:46:22.159Z,84.20
2023-02-19T19:49:24.618Z,84.10
2023-02-19T19:52:28.546Z,84.30
2023-02-19T19:55:30.724Z,84.40
2023-02-19T19:58:34.306Z,84.40
2023-02-19T20:01:36.434Z,84.70
2023-02-19T20:04:38.581Z,84.80
2023-02-19T20:07:40.680Z,85.00
2023-02-19T20:10:45.167Z,85.10
2023-02-19T20:13:47.869Z,85.20
2023-02-19T20:16:50.867Z,85.10
2023-02-19T20:19:54.102Z,85.40
2023-02-19T20:22:56.521Z,85.30
2023-02-19T20:25:58.964Z,85.10
2023-02-19T20:29:10.679Z,85.20
2023-02-19T20:32:18.643Z,85.70
2023-02-19T20:35:22.109Z,85.70
2023-02-19T20:38:24.488Z,85.30
2023-02-19T20:41:26.804Z,85.70
2023-02-19T20:44:30.037Z,86.10
2023-02-19T20:47:32.156Z,86.00
2023-02-19T20:50:34.667Z,86.10
2023-02-19T20:53:38.413Z,85.90
2023-02-19T20:56:48.879Z,86.10
2023-02-19T20:59:51.322Z,86.10
2023-02-19T21:02:53.711Z,85.90
2023-02-19T21:05:55.826Z,86.40
2023-02-19T21:08:58.280Z,86.30
2023-02-19T21:12:00.495Z,86.40
2023-02-19T21:15:04.603Z,86.40
2023-02-19T21:18:06.850Z,86.30
2023-02-19T21:21:09.077Z,86.40
2023-02-19T21:24:14.381Z,86.70
2023-02-19T21:27:16.778Z,86.30
2023-02-19T21:30:19.437Z,86.20
2023-02-19T21:33:21.586Z,86.50
2023-02-19T21:36:23.865Z,86.40
2023-02-19T21:39:27.577Z,86.50
2023-02-19T21:42:29.848Z,86.40
2023-02-19T21:45:32.251Z,86.60
2023-02-19T21:48:34.848Z,86.60
2023-02-19T21:51:39.915Z,86.50
2023-02-19T21:54:42.412Z,86.40
2023-02-19T21:57:44.612Z,86.60
2023-02-19T22:00:46.838Z,86.90
2023-02-19T22:03:49.348Z,86.80
2023-02-19T22:06:55.734Z,86.90
2023-02-19T22:09:57.927Z,86.90
2023-02-19T22:13:00.143Z,86.90
2023-02-19T22:16:03.585Z,86.90
2023-02-19T22:19:05.954Z,86.80
2023-02-19T22:22:08.161Z,86.90
2023-02-19T22:25:10.392Z,86.70
2023-02-19T22:28:12.672Z,86.80
2023-02-19T22:31:21.313Z,86.90
2023-02-19T22:34:23.578Z,87.00
2023-02-19T22:37:26.580Z,87.20
2023-02-19T22:40:28.829Z,87.20
2023-02-19T22:43:31.099Z,87.40
2023-02-19T22:46:34.325Z,87.30
2023-02-19T22:49:38.849Z,87.20
2023-02-19T22:52:41.070Z,87.40
2023-02-19T22:55:43.401Z,88.00
2023-02-19T22:58:45.819Z,87.80
2023-02-19T23:01:49.158Z,87.90
2023-02-19T23:04:51.774Z,88.00
2023-02-19T23:07:54.302Z,88.20
2023-02-19T23:10:56.468Z,88.20
2023-02-19T23:13:59.625Z,88.20
2023-02-19T23:17:02.150Z,88.00
2023-02-19T23:20:05.023Z,88.20
2023-02-19T23:23:07.215Z,88.20
2023-02-19T23:26:09.838Z,87.90
2023-02-19T23:29:15.450Z,87.80
2023-02-19T23:32:21.039Z,88.00
2023-02-19T23:35:23.717Z,88.20
2023-02-19T23:38:25.984Z,88.00
2023-02-19T23:41:28.409Z,88.10
2023-02-19T23:44:30.742Z,88.00
2023-02-19T23:47:32.906Z,87.90
2023-02-19T23:50:36.129Z,87.70
2023-02-19T23:53:38.302Z,88.40
2023-02-19T23:56:40.687Z,88.30
2023-02-19T23:59:45.331Z,88.30
